Bookmark and Share
Track history (hours):
 

Bow Pilot

Last reported at 2014-Apr-15 23:29 UTC. Time now 2014-Apr-19 12:15 UTC.
Position N 37°26' E 024°17'.

Length 104 m; draft 7.6 m.

Type: Ship (hazmat cat B). MMSI: 564978000.

NotesDate/timePositionNaut miles runAvg speedWind from/ knotsBaromVisibWave heightAir tempDewpointWater temp
2014-Apr-15 23:29N 37°26' E 024°17'62412.2
2014-Apr-13 20:18N 37°22' E 011°12'1114.0
2014-Apr-13 19:32N 37°24' E 010°59'  
2014-Apr-11 11:33N 35°54' W 005°18'0 0.2
2014-Apr-11 10:32N 35°54' W 005°18'0 0.0
2014-Apr-11 09:32N 35°54' W 005°18'0 0.0
2014-Apr-11 08:32N 35°54' W 005°18'0 0.0
2014-Apr-11 07:32N 35°54' W 005°18'1 1.1
2014-Apr-11 06:33N 35°55' W 005°19'2 2.3
2014-Apr-11 05:33N 35°57' W 005°20'1813.9
2014-Apr-11 04:14N 35°54' W 005°43'15412.9
2014-Apr-10 16:20N 36°25' W 008°50'1012.4
2014-Apr-10 15:30N 36°27' W 009°02'  
2014-Apr-07 07:15N 50°18' W 001°18'6313.0
2014-Apr-07 02:27N 50°35' E 000°17'1010.8
2014-Apr-07 01:33N 50°37' E 000°32'1211.5
2014-Apr-07 00:31N 50°42' E 000°49'3213.4
2014-Apr-06 22:06N 51°04' E 001°27'713.6
2014-Apr-06 21:33N 51°08' E 001°37'1211.8
2014-Apr-06 20:32N 51°18' E 001°48'1211.7
2014-Apr-06 19:32N 51°28' E 001°57'7111.8
2014-Apr-06 13:32N 52°39' E 002°04'1414.1
2014-Apr-06 12:33N 52°49' E 001°49'1515.0
2014-Apr-06 11:33N 52°60' E 001°31'8313.8
2014-Apr-06 05:32N 54°07' E 000°10'1313.1
2014-Apr-06 04:33N 54°17' W 000°04'1312.9
2014-Apr-06 03:33N 54°27' W 000°18'1212.4
2014-Apr-06 02:33N 54°35' W 000°34'1212.2
2014-Apr-06 01:33N 54°41' W 000°53'1010.0
2014-Apr-06 00:32N 54°37' W 001°09'  

Dump ship's entire track history

sailing weather and tide predictions

Bow Pilot — S6EN — position and weather